sensor_id;sensor_type;location;lat;lon;timestamp;temperature;humidity
23562;DHT22;11959;49.418;8.728;2023-05-29T00:01:33;17.70;93.60
23562;DHT22;11959;49.418;8.728;2023-05-29T00:04:01;17.60;93.60
23562;DHT22;11959;49.418;8.728;2023-05-29T00:06:27;17.60;93.40
23562;DHT22;11959;49.418;8.728;2023-05-29T00:08:52;17.50;93.60
23562;DHT22;11959;49.418;8.728;2023-05-29T00:11:18;17.50;93.60
23562;DHT22;11959;49.418;8.728;2023-05-29T00:13:44;17.50;93.70
23562;DHT22;11959;49.418;8.728;2023-05-29T00:16:10;17.40;93.80
23562;DHT22;11959;49.418;8.728;2023-05-29T00:18:36;17.40;93.70
23562;DHT22;11959;49.418;8.728;2023-05-29T00:21:02;17.40;94.00
23562;DHT22;11959;49.418;8.728;2023-05-29T00:23:27;17.30;93.90
23562;DHT22;11959;49.418;8.728;2023-05-29T00:25:53;17.30;93.60
23562;DHT22;11959;49.418;8.728;2023-05-29T00:28:19;17.30;93.90
23562;DHT22;11959;49.418;8.728;2023-05-29T00:30:44;17.20;93.80
23562;DHT22;11959;49.418;8.728;2023-05-29T00:33:10;17.20;94.00
23562;DHT22;11959;49.418;8.728;2023-05-29T00:35:36;17.20;94.00
23562;DHT22;11959;49.418;8.728;2023-05-29T00:38:02;17.10;94.00
23562;DHT22;11959;49.418;8.728;2023-05-29T00:40:27;17.10;94.00
23562;DHT22;11959;49.418;8.728;2023-05-29T00:42:53;17.10;93.90
23562;DHT22;11959;49.418;8.728;2023-05-29T00:45:19;17.10;94.00
23562;DHT22;11959;49.418;8.728;2023-05-29T00:47:45;17.10;94.10
23562;DHT22;11959;49.418;8.728;2023-05-29T00:50:13;17.10;94.20
23562;DHT22;11959;49.418;8.728;2023-05-29T00:52:40;17.10;94.20
23562;DHT22;11959;49.418;8.728;2023-05-29T00:55:07;17.00;94.50
23562;DHT22;11959;49.418;8.728;2023-05-29T00:57:35;17.00;94.50
23562;DHT22;11959;49.418;8.728;2023-05-29T01:00:02;17.00;94.30
23562;DHT22;11959;49.418;8.728;2023-05-29T01:02:31;17.00;94.60
23562;DHT22;11959;49.418;8.728;2023-05-29T01:04:57;16.90;94.30
23562;DHT22;11959;49.418;8.728;2023-05-29T01:07:23;16.90;94.70
23562;DHT22;11959;49.418;8.728;2023-05-29T01:09:49;16.90;94.40
23562;DHT22;11959;49.418;8.728;2023-05-29T01:21:12;16.80;94.60
23562;DHT22;11959;49.418;8.728;2023-05-29T01:28:48;16.70;94.80
23562;DHT22;11959;49.418;8.728;2023-05-29T01:31:17;16.70;94.90
23562;DHT22;11959;49.418;8.728;2023-05-29T01:33:52;16.70;94.90
23562;DHT22;11959;49.418;8.728;2023-05-29T01:36:17;16.60;94.80
23562;DHT22;11959;49.418;8.728;2023-05-29T01:38:43;16.60;94.90
23562;DHT22;11959;49.418;8.728;2023-05-29T01:41:09;16.60;94.90
23562;DHT22;11959;49.418;8.728;2023-05-29T01:43:35;16.60;94.80
23562;DHT22;11959;49.418;8.728;2023-05-29T01:46:01;16.50;94.90
23562;DHT22;11959;49.418;8.728;2023-05-29T01:48:27;16.60;94.80
23562;DHT22;11959;49.418;8.728;2023-05-29T01:50:52;16.60;94.60
23562;DHT22;11959;49.418;8.728;2023-05-29T01:53:20;16.50;94.70
23562;DHT22;11959;49.418;8.728;2023-05-29T01:55:45;16.50;95.10
23562;DHT22;11959;49.418;8.728;2023-05-29T01:58:11;16.60;94.90
23562;DHT22;11959;49.418;8.728;2023-05-29T02:00:38;16.50;94.80
23562;DHT22;11959;49.418;8.728;2023-05-29T02:03:05;16.50;94.80
23562;DHT22;11959;49.418;8.728;2023-05-29T02:05:31;16.50;95.10
23562;DHT22;11959;49.418;8.728;2023-05-29T02:07:56;16.40;95.20
23562;DHT22;11959;49.418;8.728;2023-05-29T02:10:22;16.40;95.20
23562;DHT22;11959;49.418;8.728;2023-05-29T02:12:48;16.40;95.30
23562;DHT22;11959;49.418;8.728;2023-05-29T02:15:13;16.30;95.50
23562;DHT22;11959;49.418;8.728;2023-05-29T02:17:39;16.30;95.70
23562;DHT22;11959;49.418;8.728;2023-05-29T02:20:06;16.30;95.80
23562;DHT22;11959;49.418;8.728;2023-05-29T02:22:32;16.20;95.80
23562;DHT22;11959;49.418;8.728;2023-05-29T02:24:58;16.20;95.50
23562;DHT22;11959;49.418;8.728;2023-05-29T02:27:24;16.20;95.70
23562;DHT22;11959;49.418;8.728;2023-05-29T02:29:50;16.20;95.80
23562;DHT22;11959;49.418;8.728;2023-05-29T02:32:15;16.20;95.80
23562;DHT22;11959;49.418;8.728;2023-05-29T02:34:41;16.10;96.00
23562;DHT22;11959;49.418;8.728;2023-05-29T02:37:06;16.10;96.10
23562;DHT22;11959;49.418;8.728;2023-05-29T02:39:33;16.00;95.90
23562;DHT22;11959;49.418;8.728;2023-05-29T02:41:59;16.00;96.00
23562;DHT22;11959;49.418;8.728;2023-05-29T02:44:24;16.00;96.00
23562;DHT22;11959;49.418;8.728;2023-05-29T02:46:50;16.00;96.00
23562;DHT22;11959;49.418;8.728;2023-05-29T02:49:15;16.00;96.20
23562;DHT22;11959;49.418;8.728;2023-05-29T02:51:41;15.90;96.60
23562;DHT22;11959;49.418;8.728;2023-05-29T02:54:07;15.80;97.00
23562;DHT22;11959;49.418;8.728;2023-05-29T02:56:32;15.80;97.20
23562;DHT22;11959;49.418;8.728;2023-05-29T02:59:00;15.80;96.70
23562;DHT22;11959;49.418;8.728;2023-05-29T03:01:26;15.70;97.30
23562;DHT22;11959;49.418;8.728;2023-05-29T03:03:51;15.60;97.60
23562;DHT22;11959;49.418;8.728;2023-05-29T03:06:17;15.60;97.40
23562;DHT22;11959;49.418;8.728;2023-05-29T03:08:43;15.50;96.80
23562;DHT22;11959;49.418;8.728;2023-05-29T03:11:11;15.50;97.00
23562;DHT22;11959;49.418;8.728;2023-05-29T03:13:37;15.50;97.20
23562;DHT22;11959;49.418;8.728;2023-05-29T03:16:03;15.40;97.30
23562;DHT22;11959;49.418;8.728;2023-05-29T03:18:29;15.40;97.90
23562;DHT22;11959;49.418;8.728;2023-05-29T03:20:56;15.30;99.00
23562;DHT22;11959;49.418;8.728;2023-05-29T03:23:21;15.30;99.60
23562;DHT22;11959;49.418;8.728;2023-05-29T03:25:47;15.20;99.90
23562;DHT22;11959;49.418;8.728;2023-05-29T03:28:13;15.20;99.90
23562;DHT22;11959;49.418;8.728;2023-05-29T03:30:38;15.10;99.80
23562;DHT22;11959;49.418;8.728;2023-05-29T03:33:04;15.00;99.40
23562;DHT22;11959;49.418;8.728;2023-05-29T03:35:30;15.00;99.30
23562;DHT22;11959;49.418;8.728;2023-05-29T03:37:56;15.00;99.00
23562;DHT22;11959;49.418;8.728;2023-05-29T03:40:21;15.00;99.10
23562;DHT22;11959;49.418;8.728;2023-05-29T03:42:47;15.00;99.10
23562;DHT22;11959;49.418;8.728;2023-05-29T03:45:12;15.00;99.00
23562;DHT22;11959;49.418;8.728;2023-05-29T03:47:38;15.00;98.80
23562;DHT22;11959;49.418;8.728;2023-05-29T03:50:04;15.00;98.90
23562;DHT22;11959;49.418;8.728;2023-05-29T03:52:30;15.10;99.20
23562;DHT22;11959;49.418;8.728;2023-05-29T03:54:56;15.10;99.20
23562;DHT22;11959;49.418;8.728;2023-05-29T03:57:21;15.10;99.00
23562;DHT22;11959;49.418;8.728;2023-05-29T03:59:47;15.10;99.20
23562;DHT22;11959;49.418;8.728;2023-05-29T04:02:13;15.10;98.80
23562;DHT22;11959;49.418;8.728;2023-05-29T04:04:38;15.20;99.40
23562;DHT22;11959;49.418;8.728;2023-05-29T04:07:05;15.10;99.90
23562;DHT22;11959;49.418;8.728;2023-05-29T04:09:33;15.10;99.90
23562;DHT22;11959;49.418;8.728;2023-05-29T04:11:59;15.10;99.60
23562;DHT22;11959;49.418;8.728;2023-05-29T04:14:28;15.10;99.50
23562;DHT22;11959;49.418;8.728;2023-05-29T04:16:54;15.10;99.60
23562;DHT22;11959;49.418;8.728;2023-05-29T04:19:19;15.10;99.40
23562;DHT22;11959;49.418;8.728;2023-05-29T04:21:46;15.10;99.90
23562;DHT22;11959;49.418;8.728;2023-05-29T04:24:13;15.20;99.90
23562;DHT22;11959;49.418;8.728;2023-05-29T04:26:39;15.10;99.90
23562;DHT22;11959;49.418;8.728;2023-05-29T04:29:09;15.20;99.90
23562;DHT22;11959;49.418;8.728;2023-05-29T04:31:38;15.10;99.90
23562;DHT22;11959;49.418;8.728;2023-05-29T04:34:04;15.10;99.90
23562;DHT22;11959;49.418;8.728;2023-05-29T04:36:30;15.20;99.90
23562;DHT22;11959;49.418;8.728;2023-05-29T04:38:58;15.20;99.90
23562;DHT22;11959;49.418;8.728;2023-05-29T04:41:24;15.30;99.90
23562;DHT22;11959;49.418;8.728;2023-05-29T04:43:55;15.40;99.90
23562;DHT22;11959;49.418;8.728;2023-05-29T04:46:22;15.40;99.90
23562;DHT22;11959;49.418;8.728;2023-05-29T04:48:49;15.50;99.90
23562;DHT22;11959;49.418;8.728;2023-05-29T04:51:18;15.60;99.90
23562;DHT22;11959;49.418;8.728;2023-05-29T04:53:45;15.60;99.90
23562;DHT22;11959;49.418;8.728;2023-05-29T04:56:12;15.70;99.70
23562;DHT22;11959;49.418;8.728;2023-05-29T04:58:38;15.80;99.30
23562;DHT22;11959;49.418;8.728;2023-05-29T05:01:04;15.90;98.50
23562;DHT22;11959;49.418;8.728;2023-05-29T05:03:30;16.00;98.80
23562;DHT22;11959;49.418;8.728;2023-05-29T05:06:03;16.10;98.70
23562;DHT22;11959;49.418;8.728;2023-05-29T05:08:30;16.20;98.70
23562;DHT22;11959;49.418;8.728;2023-05-29T05:10:56;16.30;98.20
23562;DHT22;11959;49.418;8.728;2023-05-29T05:13:22;16.40;98.20
23562;DHT22;11959;49.418;8.728;2023-05-29T05:15:48;16.40;98.20
23562;DHT22;11959;49.418;8.728;2023-05-29T05:18:13;16.60;98.50
23562;DHT22;11959;49.418;8.728;2023-05-29T05:20:39;16.60;98.20
23562;DHT22;11959;49.418;8.728;2023-05-29T05:23:05;16.70;99.40
23562;DHT22;11959;49.418;8.728;2023-05-29T05:25:30;16.80;99.60
23562;DHT22;11959;49.418;8.728;2023-05-29T05:27:59;16.80;99.40
23562;DHT22;11959;49.418;8.728;2023-05-29T05:30:24;16.80;99.80
23562;DHT22;11959;49.418;8.728;2023-05-29T05:32:50;16.90;99.30
23562;DHT22;11959;49.418;8.728;2023-05-29T05:35:16;16.90;98.90
23562;DHT22;11959;49.418;8.728;2023-05-29T05:37:42;17.00;98.80
23562;DHT22;11959;49.418;8.728;2023-05-29T05:40:08;17.10;98.40
23562;DHT22;11959;49.418;8.728;2023-05-29T05:42:34;17.20;97.70
23562;DHT22;11959;49.418;8.728;2023-05-29T05:45:01;17.20;97.40
23562;DHT22;11959;49.418;8.728;2023-05-29T05:47:26;17.30;97.30
23562;DHT22;11959;49.418;8.728;2023-05-29T05:49:55;17.40;96.90
23562;DHT22;11959;49.418;8.728;2023-05-29T05:52:21;17.60;96.90
23562;DHT22;11959;49.418;8.728;2023-05-29T05:54:48;17.60;96.40
23562;DHT22;11959;49.418;8.728;2023-05-29T05:57:13;17.70;95.30
23562;DHT22;11959;49.418;8.728;2023-05-29T05:59:39;17.80;96.40
23562;DHT22;11959;49.418;8.728;2023-05-29T06:02:05;17.90;96.10
23562;DHT22;11959;49.418;8.728;2023-05-29T06:04:31;18.00;96.10
23562;DHT22;11959;49.418;8.728;2023-05-29T06:06:56;18.10;96.90
23562;DHT22;11959;49.418;8.728;2023-05-29T06:09:22;18.20;95.50
23562;DHT22;11959;49.418;8.728;2023-05-29T06:11:48;18.30;95.50
23562;DHT22;11959;49.418;8.728;2023-05-29T06:14:14;18.30;95.10
23562;DHT22;11959;49.418;8.728;2023-05-29T06:16:40;18.40;95.40
23562;DHT22;11959;49.418;8.728;2023-05-29T06:19:06;18.40;95.30
23562;DHT22;11959;49.418;8.728;2023-05-29T06:21:32;18.50;95.60
23562;DHT22;11959;49.418;8.728;2023-05-29T06:23:58;18.50;96.00
23562;DHT22;11959;49.418;8.728;2023-05-29T06:26:23;18.60;95.50
23562;DHT22;11959;49.418;8.728;2023-05-29T06:28:50;18.60;95.20
23562;DHT22;11959;49.418;8.728;2023-05-29T06:31:16;18.70;95.00
23562;DHT22;11959;49.418;8.728;2023-05-29T06:33:42;18.70;95.00
23562;DHT22;11959;49.418;8.728;2023-05-29T06:36:08;18.70;95.00
23562;DHT22;11959;49.418;8.728;2023-05-29T06:38:34;18.80;94.80
23562;DHT22;11959;49.418;8.728;2023-05-29T06:40:59;18.80;94.40
23562;DHT22;11959;49.418;8.728;2023-05-29T06:43:27;18.90;95.60
23562;DHT22;11959;49.418;8.728;2023-05-29T06:45:52;19.00;95.00
23562;DHT22;11959;49.418;8.728;2023-05-29T06:48:18;19.00;95.10
23562;DHT22;11959;49.418;8.728;2023-05-29T06:50:43;19.10;95.20
23562;DHT22;11959;49.418;8.728;2023-05-29T06:53:09;19.10;95.00
23562;DHT22;11959;49.418;8.728;2023-05-29T06:55:35;19.20;94.80
23562;DHT22;11959;49.418;8.728;2023-05-29T06:58:01;19.20;94.10
23562;DHT22;11959;49.418;8.728;2023-05-29T07:00:26;19.20;94.40
23562;DHT22;11959;49.418;8.728;2023-05-29T07:02:52;19.30;94.30
23562;DHT22;11959;49.418;8.728;2023-05-29T07:05:18;19.40;94.20
23562;DHT22;11959;49.418;8.728;2023-05-29T07:07:44;19.40;93.70
23562;DHT22;11959;49.418;8.728;2023-05-29T07:10:09;19.50;94.30
23562;DHT22;11959;49.418;8.728;2023-05-29T07:12:35;19.60;94.10
23562;DHT22;11959;49.418;8.728;2023-05-29T07:15:01;19.60;94.30
23562;DHT22;11959;49.418;8.728;2023-05-29T07:17:26;19.70;94.30
23562;DHT22;11959;49.418;8.728;2023-05-29T07:19:52;19.80;93.40
23562;DHT22;11959;49.418;8.728;2023-05-29T07:22:19;19.90;93.40
23562;DHT22;11959;49.418;8.728;2023-05-29T07:24:45;19.90;93.60
23562;DHT22;11959;49.418;8.728;2023-05-29T07:27:11;20.00;93.60
23562;DHT22;11959;49.418;8.728;2023-05-29T07:29:36;20.00;93.20
23562;DHT22;11959;49.418;8.728;2023-05-29T07:32:02;20.10;93.90
23562;DHT22;11959;49.418;8.728;2023-05-29T07:34:28;20.30;92.90
23562;DHT22;11959;49.418;8.728;2023-05-29T07:37:05;20.30;93.00
23562;DHT22;11959;49.418;8.728;2023-05-29T07:39:32;20.40;92.50
23562;DHT22;11959;49.418;8.728;2023-05-29T07:41:59;20.40;93.00
23562;DHT22;11959;49.418;8.728;2023-05-29T07:44:25;20.50;93.60
23562;DHT22;11959;49.418;8.728;2023-05-29T07:46:50;20.50;93.20
23562;DHT22;11959;49.418;8.728;2023-05-29T07:49:16;20.60;93.10
23562;DHT22;11959;49.418;8.728;2023-05-29T07:51:42;20.70;92.60
23562;DHT22;11959;49.418;8.728;2023-05-29T07:54:07;20.90;92.00
23562;DHT22;11959;49.418;8.728;2023-05-29T07:56:33;21.00;92.70
23562;DHT22;11959;49.418;8.728;2023-05-29T07:59:01;21.10;92.60
23562;DHT22;11959;49.418;8.728;2023-05-29T08:01:27;21.10;92.10
23562;DHT22;11959;49.418;8.728;2023-05-29T08:03:52;21.20;93.00
23562;DHT22;11959;49.418;8.728;2023-05-29T08:06:18;21.30;91.70
23562;DHT22;11959;49.418;8.728;2023-05-29T08:08:44;21.30;92.10
23562;DHT22;11959;49.418;8.728;2023-05-29T08:11:10;21.40;93.10
23562;DHT22;11959;49.418;8.728;2023-05-29T08:13:36;21.40;92.50
23562;DHT22;11959;49.418;8.728;2023-05-29T08:16:02;21.50;92.20
23562;DHT22;11959;49.418;8.728;2023-05-29T08:18:31;21.60;91.50
23562;DHT22;11959;49.418;8.728;2023-05-29T08:20:57;21.80;91.90
23562;DHT22;11959;49.418;8.728;2023-05-29T08:23:23;22.00;91.40
23562;DHT22;11959;49.418;8.728;2023-05-29T08:25:48;22.10;91.30
23562;DHT22;11959;49.418;8.728;2023-05-29T08:28:15;22.20;91.20
23562;DHT22;11959;49.418;8.728;2023-05-29T08:30:41;22.30;91.10
23562;DHT22;11959;49.418;8.728;2023-05-29T08:33:07;22.50;91.40
23562;DHT22;11959;49.418;8.728;2023-05-29T08:35:33;22.50;91.20
23562;DHT22;11959;49.418;8.728;2023-05-29T08:37:59;22.60;90.80
23562;DHT22;11959;49.418;8.728;2023-05-29T08:40:25;22.70;90.80
23562;DHT22;11959;49.418;8.728;2023-05-29T08:43:00;22.80;90.80
23562;DHT22;11959;49.418;8.728;2023-05-29T08:45:29;22.90;90.40
23562;DHT22;11959;49.418;8.728;2023-05-29T08:47:56;23.00;90.50
23562;DHT22;11959;49.418;8.728;2023-05-29T08:50:23;23.10;90.50
23562;DHT22;11959;49.418;8.728;2023-05-29T08:52:49;23.20;90.30
23562;DHT22;11959;49.418;8.728;2023-05-29T08:55:15;23.30;90.30
23562;DHT22;11959;49.418;8.728;2023-05-29T08:57:42;23.30;90.00
23562;DHT22;11959;49.418;8.728;2023-05-29T09:00:09;23.30;90.20
23562;DHT22;11959;49.418;8.728;2023-05-29T09:02:41;23.50;89.70
23562;DHT22;11959;49.418;8.728;2023-05-29T09:05:09;23.50;89.40
23562;DHT22;11959;49.418;8.728;2023-05-29T09:07:36;23.60;89.10
23562;DHT22;11959;49.418;8.728;2023-05-29T09:10:05;23.70;88.40
23562;DHT22;11959;49.418;8.728;2023-05-29T09:12:32;23.80;88.70
23562;DHT22;11959;49.418;8.728;2023-05-29T09:14:58;23.80;88.50
23562;DHT22;11959;49.418;8.728;2023-05-29T09:17:24;23.90;87.80
23562;DHT22;11959;49.418;8.728;2023-05-29T09:19:50;23.90;87.90
23562;DHT22;11959;49.418;8.728;2023-05-29T09:22:15;24.00;88.40
23562;DHT22;11959;49.418;8.728;2023-05-29T09:24:46;24.00;87.60
23562;DHT22;11959;49.418;8.728;2023-05-29T09:27:13;24.20;87.50
23562;DHT22;11959;49.418;8.728;2023-05-29T09:29:39;24.10;86.70
23562;DHT22;11959;49.418;8.728;2023-05-29T09:32:11;24.20;87.00
23562;DHT22;11959;49.418;8.728;2023-05-29T09:34:37;24.40;86.20
23562;DHT22;11959;49.418;8.728;2023-05-29T09:37:05;24.30;86.40
23562;DHT22;11959;49.418;8.728;2023-05-29T09:39:50;24.40;87.50
23562;DHT22;11959;49.418;8.728;2023-05-29T09:42:19;24.60;87.50
23562;DHT22;11959;49.418;8.728;2023-05-29T09:44:54;24.80;86.40
23562;DHT22;11959;49.418;8.728;2023-05-29T09:47:20;24.90;86.40
23562;DHT22;11959;49.418;8.728;2023-05-29T09:49:46;25.00;85.70
23562;DHT22;11959;49.418;8.728;2023-05-29T09:52:13;25.10;85.00
23562;DHT22;11959;49.418;8.728;2023-05-29T09:54:43;25.30;86.10
23562;DHT22;11959;49.418;8.728;2023-05-29T09:57:16;25.40;84.10
23562;DHT22;11959;49.418;8.728;2023-05-29T09:59:43;25.50;84.80
23562;DHT22;11959;49.418;8.728;2023-05-29T10:02:11;25.70;84.10
23562;DHT22;11959;49.418;8.728;2023-05-29T10:04:39;25.90;82.90
23562;DHT22;11959;49.418;8.728;2023-05-29T10:07:28;26.00;84.30
23562;DHT22;11959;49.418;8.728;2023-05-29T10:10:04;26.10;82.10
23562;DHT22;11959;49.418;8.728;2023-05-29T10:12:49;26.20;82.80
23562;DHT22;11959;49.418;8.728;2023-05-29T10:15:16;26.40;82.40
23562;DHT22;11959;49.418;8.728;2023-05-29T10:17:50;26.30;82.00
23562;DHT22;11959;49.418;8.728;2023-05-29T10:20:20;26.40;80.70
23562;DHT22;11959;49.418;8.728;2023-05-29T10:22:49;26.40;81.10
23562;DHT22;11959;49.418;8.728;2023-05-29T10:25:18;26.40;80.60
23562;DHT22;11959;49.418;8.728;2023-05-29T10:27:44;26.40;82.60
23562;DHT22;11959;49.418;8.728;2023-05-29T10:30:29;26.40;81.20
23562;DHT22;11959;49.418;8.728;2023-05-29T10:38:40;26.70;80.60
23562;DHT22;11959;49.418;8.728;2023-05-29T10:44:02;26.80;80.80
23562;DHT22;11959;49.418;8.728;2023-05-29T10:49:17;27.00;79.80
23562;DHT22;11959;49.418;8.728;2023-05-29T10:51:43;27.00;80.00
23562;DHT22;11959;49.418;8.728;2023-05-29T10:54:09;27.10;80.40
23562;DHT22;11959;49.418;8.728;2023-05-29T10:56:36;27.10;79.70
23562;DHT22;11959;49.418;8.728;2023-05-29T10:59:01;27.10;80.80
23562;DHT22;11959;49.418;8.728;2023-05-29T11:01:29;27.10;79.20
23562;DHT22;11959;49.418;8.728;2023-05-29T11:06:42;27.20;78.50
23562;DHT22;11959;49.418;8.728;2023-05-29T11:09:37;27.20;78.90
23562;DHT22;11959;49.418;8.728;2023-05-29T11:12:21;27.20;78.30
23562;DHT22;11959;49.418;8.728;2023-05-29T11:15:06;27.20;77.90
23562;DHT22;11959;49.418;8.728;2023-05-29T11:20:09;27.20;75.50
23562;DHT22;11959;49.418;8.728;2023-05-29T11:25:26;27.00;76.60
23562;DHT22;11959;49.418;8.728;2023-05-29T11:27:52;27.00;77.30
23562;DHT22;11959;49.418;8.728;2023-05-29T11:30:21;27.00;77.10
23562;DHT22;11959;49.418;8.728;2023-05-29T11:32:48;27.00;77.20
23562;DHT22;11959;49.418;8.728;2023-05-29T11:35:15;27.10;76.00
23562;DHT22;11959;49.418;8.728;2023-05-29T11:37:41;27.00;76.10
23562;DHT22;11959;49.418;8.728;2023-05-29T11:40:09;26.90;76.00
23562;DHT22;11959;49.418;8.728;2023-05-29T11:42:41;26.90;75.60
23562;DHT22;11959;49.418;8.728;2023-05-29T11:45:32;27.00;77.10
23562;DHT22;11959;49.418;8.728;2023-05-29T11:48:03;27.10;75.70
23562;DHT22;11959;49.418;8.728;2023-05-29T11:50:31;27.10;75.70
23562;DHT22;11959;49.418;8.728;2023-05-29T11:52:58;27.10;75.10
23562;DHT22;11959;49.418;8.728;2023-05-29T11:55:25;27.10;74.20
23562;DHT22;11959;49.418;8.728;2023-05-29T11:57:59;27.10;74.20
23562;DHT22;11959;49.418;8.728;2023-05-29T12:00:26;27.10;74.00
23562;DHT22;11959;49.418;8.728;2023-05-29T12:02:51;27.10;74.20
23562;DHT22;11959;49.418;8.728;2023-05-29T12:05:18;27.10;75.20
23562;DHT22;11959;49.418;8.728;2023-05-29T12:07:48;27.00;75.00
23562;DHT22;11959;49.418;8.728;2023-05-29T12:10:16;27.00;73.30
23562;DHT22;11959;49.418;8.728;2023-05-29T12:12:46;27.00;74.60
23562;DHT22;11959;49.418;8.728;2023-05-29T12:15:12;27.10;75.20
23562;DHT22;11959;49.418;8.728;2023-05-29T12:17:40;27.10;74.40
23562;DHT22;11959;49.418;8.728;2023-05-29T12:20:06;27.10;75.00
23562;DHT22;11959;49.418;8.728;2023-05-29T12:22:36;27.10;75.30
23562;DHT22;11959;49.418;8.728;2023-05-29T12:27:36;27.10;75.10
23562;DHT22;11959;49.418;8.728;2023-05-29T12:30:11;27.10;74.20
23562;DHT22;11959;49.418;8.728;2023-05-29T12:32:38;27.00;74.90
23562;DHT22;11959;49.418;8.728;2023-05-29T12:37:54;27.00;75.40
23562;DHT22;11959;49.418;8.728;2023-05-29T12:40:23;27.00;74.10
23562;DHT22;11959;49.418;8.728;2023-05-29T12:42:57;26.90;75.00
23562;DHT22;11959;49.418;8.728;2023-05-29T12:45:27;26.90;75.70
23562;DHT22;11959;49.418;8.728;2023-05-29T12:47:54;26.80;75.00
23562;DHT22;11959;49.418;8.728;2023-05-29T12:50:25;26.80;76.60
23562;DHT22;11959;49.418;8.728;2023-05-29T12:52:59;26.80;75.90
23562;DHT22;11959;49.418;8.728;2023-05-29T12:55:27;26.80;75.60
23562;DHT22;11959;49.418;8.728;2023-05-29T12:57:54;26.80;75.90
23562;DHT22;11959;49.418;8.728;2023-05-29T13:00:21;26.90;76.40
23562;DHT22;11959;49.418;8.728;2023-05-29T13:02:47;26.90;74.80
23562;DHT22;11959;49.418;8.728;2023-05-29T13:05:14;26.90;74.70
23562;DHT22;11959;49.418;8.728;2023-05-29T13:07:41;26.80;76.20
23562;DHT22;11959;49.418;8.728;2023-05-29T13:10:07;26.90;74.80
23562;DHT22;11959;49.418;8.728;2023-05-29T13:12:33;26.90;73.70
23562;DHT22;11959;49.418;8.728;2023-05-29T13:14:59;26.80;73.70
23562;DHT22;11959;49.418;8.728;2023-05-29T13:17:24;26.80;74.80
23562;DHT22;11959;49.418;8.728;2023-05-29T13:19:50;26.70;74.40
23562;DHT22;11959;49.418;8.728;2023-05-29T13:22:16;26.70;75.20
23562;DHT22;11959;49.418;8.728;2023-05-29T13:24:41;26.70;74.30
23562;DHT22;11959;49.418;8.728;2023-05-29T13:27:07;26.80;74.70
23562;DHT22;11959;49.418;8.728;2023-05-29T13:29:33;26.80;74.80
23562;DHT22;11959;49.418;8.728;2023-05-29T13:32:00;26.80;75.00
23562;DHT22;11959;49.418;8.728;2023-05-29T13:34:25;26.70;74.70
23562;DHT22;11959;49.418;8.728;2023-05-29T13:36:57;26.80;75.30
23562;DHT22;11959;49.418;8.728;2023-05-29T13:39:23;26.80;75.10
23562;DHT22;11959;49.418;8.728;2023-05-29T13:41:50;26.90;74.20
23562;DHT22;11959;49.418;8.728;2023-05-29T13:44:15;26.80;74.50
23562;DHT22;11959;49.418;8.728;2023-05-29T13:46:41;26.90;74.00
23562;DHT22;11959;49.418;8.728;2023-05-29T13:49:07;26.90;76.00
23562;DHT22;11959;49.418;8.728;2023-05-29T13:51:33;26.90;75.20
23562;DHT22;11959;49.418;8.728;2023-05-29T13:53:59;26.90;74.50
23562;DHT22;11959;49.418;8.728;2023-05-29T13:56:24;26.90;74.90
23562;DHT22;11959;49.418;8.728;2023-05-29T13:58:52;26.90;74.00
23562;DHT22;11959;49.418;8.728;2023-05-29T14:01:18;26.90;73.20
23562;DHT22;11959;49.418;8.728;2023-05-29T14:03:45;27.00;74.40
23562;DHT22;11959;49.418;8.728;2023-05-29T14:06:11;27.00;74.80
23562;DHT22;11959;49.418;8.728;2023-05-29T14:08:37;27.00;72.90
23562;DHT22;11959;49.418;8.728;2023-05-29T14:11:03;26.90;74.00
23562;DHT22;11959;49.418;8.728;2023-05-29T14:13:28;26.80;73.20
23562;DHT22;11959;49.418;8.728;2023-05-29T14:15:54;26.90;73.90
23562;DHT22;11959;49.418;8.728;2023-05-29T14:18:22;26.90;73.90
23562;DHT22;11959;49.418;8.728;2023-05-29T14:20:48;27.00;74.40
23562;DHT22;11959;49.418;8.728;2023-05-29T14:23:16;26.90;74.20
23562;DHT22;11959;49.418;8.728;2023-05-29T14:25:42;27.00;73.40
23562;DHT22;11959;49.418;8.728;2023-05-29T14:28:08;27.00;73.40
23562;DHT22;11959;49.418;8.728;2023-05-29T14:30:34;27.00;74.60
23562;DHT22;11959;49.418;8.728;2023-05-29T14:32:59;27.00;74.50
23562;DHT22;11959;49.418;8.728;2023-05-29T14:35:25;27.10;72.90
23562;DHT22;11959;49.418;8.728;2023-05-29T14:37:51;27.00;73.60
23562;DHT22;11959;49.418;8.728;2023-05-29T14:40:17;26.90;74.10
23562;DHT22;11959;49.418;8.728;2023-05-29T14:42:43;26.90;73.70
23562;DHT22;11959;49.418;8.728;2023-05-29T14:45:09;27.00;72.50
23562;DHT22;11959;49.418;8.728;2023-05-29T14:47:37;27.00;72.80
23562;DHT22;11959;49.418;8.728;2023-05-29T14:50:04;27.00;73.80
23562;DHT22;11959;49.418;8.728;2023-05-29T14:52:29;26.90;72.10
23562;DHT22;11959;49.418;8.728;2023-05-29T14:54:55;27.00;71.80
23562;DHT22;11959;49.418;8.728;2023-05-29T14:57:21;27.10;71.50
23562;DHT22;11959;49.418;8.728;2023-05-29T14:59:46;27.10;69.70
23562;DHT22;11959;49.418;8.728;2023-05-29T15:02:12;27.10;72.20
23562;DHT22;11959;49.418;8.728;2023-05-29T15:04:38;27.10;71.20
23562;DHT22;11959;49.418;8.728;2023-05-29T15:07:04;27.10;71.60
23562;DHT22;11959;49.418;8.728;2023-05-29T15:09:30;27.10;73.20
23562;DHT22;11959;49.418;8.728;2023-05-29T15:11:55;27.20;73.30
23562;DHT22;11959;49.418;8.728;2023-05-29T15:14:21;27.10;71.70
23562;DHT22;11959;49.418;8.728;2023-05-29T15:16:47;27.10;72.00
23562;DHT22;11959;49.418;8.728;2023-05-29T15:19:13;27.10;72.30
23562;DHT22;11959;49.418;8.728;2023-05-29T15:21:39;27.00;71.30
23562;DHT22;11959;49.418;8.728;2023-05-29T15:24:13;27.00;71.20
23562;DHT22;11959;49.418;8.728;2023-05-29T15:26:38;27.10;71.70
23562;DHT22;11959;49.418;8.728;2023-05-29T15:29:04;27.10;72.00
23562;DHT22;11959;49.418;8.728;2023-05-29T15:31:30;27.10;72.80
23562;DHT22;11959;49.418;8.728;2023-05-29T15:33:55;27.20;73.70
23562;DHT22;11959;49.418;8.728;2023-05-29T15:36:21;27.30;71.70
23562;DHT22;11959;49.418;8.728;2023-05-29T15:38:47;27.30;74.10
23562;DHT22;11959;49.418;8.728;2023-05-29T15:41:13;27.30;73.20
23562;DHT22;11959;49.418;8.728;2023-05-29T15:43:40;27.40;72.70
23562;DHT22;11959;49.418;8.728;2023-05-29T15:46:06;27.40;72.60
23562;DHT22;11959;49.418;8.728;2023-05-29T15:48:31;27.40;72.60
23562;DHT22;11959;49.418;8.728;2023-05-29T15:50:57;27.50;73.20
23562;DHT22;11959;49.418;8.728;2023-05-29T15:53:23;27.40;72.40
23562;DHT22;11959;49.418;8.728;2023-05-29T15:55:49;27.30;73.20
23562;DHT22;11959;49.418;8.728;2023-05-29T15:58:14;27.30;73.00
23562;DHT22;11959;49.418;8.728;2023-05-29T16:00:40;27.30;72.30
23562;DHT22;11959;49.418;8.728;2023-05-29T16:03:06;27.30;71.80
23562;DHT22;11959;49.418;8.728;2023-05-29T16:05:31;27.30;70.70
23562;DHT22;11959;49.418;8.728;2023-05-29T16:07:57;27.30;70.90